createdAt,value
2022-09-16T00:00:16.541Z,13.34
2022-09-16T00:01:17.077Z,13.37
2022-09-16T00:02:17.299Z,13.50
2022-09-16T00:03:16.864Z,13.47
2022-09-16T00:04:16.299Z,13.47
2022-09-16T00:05:17.010Z,13.51
2022-09-16T00:06:16.484Z,13.49
2022-09-16T00:07:16.941Z,13.49
2022-09-16T00:08:16.403Z,13.47
2022-09-16T00:09:16.874Z,13.47
2022-09-16T00:10:16.362Z,13.43
2022-09-16T00:11:16.825Z,13.44
2022-09-16T00:12:17.279Z,13.44
2022-09-16T00:13:16.777Z,13.44
2022-09-16T00:14:17.247Z,13.55
2022-09-16T00:15:16.686Z,13.54
2022-09-16T00:16:17.192Z,13.53
2022-09-16T00:17:16.831Z,13.55
2022-09-16T00:18:17.288Z,13.55
2022-09-16T00:19:16.740Z,13.55
2022-09-16T00:20:17.229Z,13.58
2022-09-16T00:21:16.690Z,13.61
2022-09-16T00:22:16.997Z,13.60
2022-09-16T00:23:16.439Z,13.58
2022-09-16T00:24:16.907Z,13.54
2022-09-16T00:25:16.397Z,13.55
2022-09-16T00:26:16.863Z,13.50
2022-09-16T00:27:16.324Z,13.49
2022-09-16T00:28:16.784Z,13.46
2022-09-16T00:29:17.241Z,13.46
2022-09-16T00:30:16.708Z,13.51
2022-09-16T00:31:17.254Z,13.49
2022-09-16T00:32:16.660Z,13.50
2022-09-16T00:33:17.142Z,13.51
2022-09-16T00:34:16.595Z,13.60
2022-09-16T00:35:17.095Z,13.58
2022-09-16T00:36:16.603Z,13.53
2022-09-16T00:37:17.131Z,13.51
2022-09-16T00:38:16.592Z,13.57
2022-09-16T00:39:17.076Z,13.57
2022-09-16T00:40:16.606Z,13.58
2022-09-16T00:41:17.132Z,13.63
2022-09-16T00:42:17.032Z,13.58
2022-09-16T00:43:16.466Z,13.60
2022-09-16T00:44:16.945Z,13.60
2022-09-16T00:45:16.425Z,13.55
2022-09-16T00:46:16.942Z,13.55
2022-09-16T00:47:16.460Z,13.57
2022-09-16T00:48:16.936Z,13.51
2022-09-16T00:49:16.418Z,13.53
2022-09-16T00:50:16.907Z,13.46
2022-09-16T00:51:16.633Z,13.50
2022-09-16T00:52:16.762Z,13.47
2022-09-16T00:53:17.243Z,13.51
2022-09-16T00:54:16.725Z,13.50
2022-09-16T00:55:17.195Z,13.49
2022-09-16T00:56:16.687Z,13.50
2022-09-16T00:57:17.152Z,13.51
2022-09-16T00:58:16.655Z,13.49
2022-09-16T00:59:17.115Z,13.47
2022-09-16T01:00:16.605Z,13.49
2022-09-16T01:01:17.075Z,13.49
2022-09-16T01:02:16.664Z,13.44
2022-09-16T01:03:16.319Z,13.46
2022-09-16T01:04:16.792Z,13.53
2022-09-16T01:05:17.277Z,13.53
2022-09-16T01:06:16.747Z,13.54
2022-09-16T01:07:17.221Z,13.51
2022-09-16T01:08:16.704Z,13.49
2022-09-16T01:09:17.221Z,13.47
2022-09-16T01:10:16.706Z,13.46
2022-09-16T01:11:17.203Z,13.50
2022-09-16T01:12:16.639Z,13.49
2022-09-16T01:13:17.135Z,13.51
2022-09-16T01:14:16.595Z,13.49
2022-09-16T01:15:17.058Z,13.46
2022-09-16T01:16:16.643Z,13.46
2022-09-16T01:17:17.328Z,13.46
2022-09-16T01:18:16.807Z,13.43
2022-09-16T01:19:17.275Z,13.40
2022-09-16T01:20:16.791Z,13.40
2022-09-16T01:21:17.261Z,13.39
2022-09-16T01:22:16.771Z,13.42
2022-09-16T01:23:17.265Z,13.40
2022-09-16T01:24:16.748Z,13.42
2022-09-16T01:25:17.220Z,13.37
2022-09-16T01:26:16.680Z,13.42
2022-09-16T01:27:17.153Z,13.39
2022-09-16T01:28:16.636Z,13.37
2022-09-16T01:29:17.111Z,13.39
2022-09-16T01:30:16.599Z,13.34
2022-09-16T01:31:17.118Z,13.36
2022-09-16T01:32:16.499Z,13.39
2022-09-16T01:33:16.974Z,13.40
2022-09-16T01:34:16.466Z,13.37
2022-09-16T01:35:16.952Z,13.39
2022-09-16T01:36:16.425Z,13.34
2022-09-16T01:37:16.904Z,13.33
2022-09-16T01:38:16.391Z,13.34
2022-09-16T01:39:16.837Z,13.33
2022-09-16T01:40:16.315Z,13.34
2022-09-16T01:41:16.860Z,13.33
2022-09-16T01:42:17.248Z,13.33
2022-09-16T01:43:16.692Z,13.33
2022-09-16T01:44:17.189Z,13.33
2022-09-16T01:45:16.682Z,13.34
2022-09-16T01:46:17.188Z,13.36
2022-09-16T01:47:16.725Z,13.37
2022-09-16T01:48:17.143Z,13.29
2022-09-16T01:49:16.582Z,13.29
2022-09-16T01:50:17.020Z,13.27
2022-09-16T01:51:16.451Z,13.25
2022-09-16T01:52:16.598Z,13.27
2022-09-16T01:53:17.047Z,13.27
2022-09-16T01:54:16.467Z,13.26
2022-09-16T01:55:16.942Z,13.30
2022-09-16T01:56:16.408Z,13.29
2022-09-16T01:57:16.860Z,13.27
2022-09-16T01:58:16.304Z,13.32
2022-09-16T01:59:16.758Z,13.30
2022-09-16T02:00:17.283Z,13.27
2022-09-16T02:01:16.821Z,13.27
2022-09-16T02:02:17.268Z,13.27
2022-09-16T02:03:16.985Z,13.27
2022-09-16T02:04:16.427Z,13.26
2022-09-16T02:05:16.892Z,13.25
2022-09-16T02:06:16.311Z,13.25
2022-09-16T02:07:16.727Z,13.25
2022-09-16T02:08:17.159Z,13.23
2022-09-16T02:09:16.643Z,13.26
2022-09-16T02:10:17.099Z,13.25
2022-09-16T02:11:16.582Z,13.22
2022-09-16T02:12:16.941Z,13.23
2022-09-16T02:13:16.407Z,13.22
2022-09-16T02:14:16.872Z,13.22
2022-09-16T02:15:16.338Z,13.23
2022-09-16T02:16:16.803Z,13.22
2022-09-16T02:17:16.325Z,13.22
2022-09-16T02:18:16.756Z,13.19
2022-09-16T02:19:17.219Z,13.21
2022-09-16T02:20:16.650Z,13.19
2022-09-16T02:21:17.066Z,13.23
2022-09-16T02:22:16.632Z,13.21
2022-09-16T02:23:17.096Z,13.19
2022-09-16T02:24:16.541Z,13.19
2022-09-16T02:25:17.033Z,13.21
2022-09-16T02:26:16.515Z,13.18
2022-09-16T02:27:16.962Z,13.16
2022-09-16T02:28:16.420Z,13.16
2022-09-16T02:29:16.909Z,13.18
2022-09-16T02:30:16.406Z,13.15
2022-09-16T02:31:16.895Z,13.16
2022-09-16T02:32:16.628Z,13.18
2022-09-16T02:33:17.088Z,13.14
2022-09-16T02:34:16.512Z,13.15
2022-09-16T02:35:16.976Z,13.15
2022-09-16T02:36:16.393Z,13.15
2022-09-16T02:37:16.839Z,13.15
2022-09-16T02:38:17.299Z,13.16
2022-09-16T02:39:16.754Z,13.15
2022-09-16T02:40:17.283Z,13.11
2022-09-16T02:41:16.851Z,13.12
2022-09-16T02:42:16.305Z,13.06
2022-09-16T02:43:16.784Z,13.11
2022-09-16T02:44:17.219Z,13.11
2022-09-16T02:45:16.694Z,13.11
2022-09-16T02:46:17.149Z,13.12
2022-09-16T02:47:16.665Z,13.11
2022-09-16T02:48:17.082Z,13.11
2022-09-16T02:49:16.523Z,13.11
2022-09-16T02:50:16.963Z,13.14
2022-09-16T02:51:16.396Z,13.12
2022-09-16T02:52:17.030Z,13.14
2022-09-16T02:53:16.480Z,13.09
2022-09-16T02:54:16.940Z,13.09
2022-09-16T02:55:16.402Z,13.12
2022-09-16T02:56:16.880Z,13.11
2022-09-16T02:57:16.406Z,13.09
2022-09-16T02:58:16.877Z,13.11
2022-09-16T02:59:16.364Z,13.12
2022-09-16T03:00:16.835Z,13.09
2022-09-16T03:01:16.293Z,13.11
2022-09-16T03:02:16.952Z,13.12
2022-09-16T03:03:16.367Z,13.09
2022-09-16T03:04:16.795Z,13.05
2022-09-16T03:05:17.265Z,13.05
2022-09-16T03:06:16.709Z,13.06
2022-09-16T03:07:17.139Z,13.06
2022-09-16T03:08:16.611Z,13.09
2022-09-16T03:09:17.081Z,13.09
2022-09-16T03:10:16.550Z,13.08
2022-09-16T03:11:16.988Z,13.05
2022-09-16T03:12:16.471Z,13.01
2022-09-16T03:13:16.958Z,12.95
2022-09-16T03:14:16.418Z,12.96
2022-09-16T03:15:16.877Z,12.94
2022-09-16T03:16:16.297Z,12.91
2022-09-16T03:17:16.941Z,12.94
2022-09-16T03:18:16.387Z,12.92
2022-09-16T03:19:16.843Z,12.89
2022-09-16T03:20:17.284Z,12.91
2022-09-16T03:21:16.712Z,12.89
2022-09-16T03:22:16.892Z,12.91
2022-09-16T03:23:16.359Z,12.89
2022-09-16T03:24:16.813Z,12.85
2022-09-16T03:25:17.280Z,12.87
2022-09-16T03:26:16.764Z,12.91
2022-09-16T03:27:17.224Z,12.89
2022-09-16T03:28:16.698Z,12.91
2022-09-16T03:29:17.143Z,12.87
2022-09-16T03:30:16.602Z,12.85
2022-09-16T03:31:17.054Z,12.85
2022-09-16T03:32:16.512Z,12.89
2022-09-16T03:33:16.956Z,12.88
2022-09-16T03:34:16.424Z,12.85
2022-09-16T03:35:16.863Z,12.85
2022-09-16T03:36:16.283Z,12.81
2022-09-16T03:37:16.746Z,12.84
2022-09-16T03:38:17.213Z,12.84
2022-09-16T03:39:16.662Z,12.84
2022-09-16T03:40:17.243Z,12.84
2022-09-16T03:41:16.888Z,12.84
2022-09-16T03:42:16.335Z,12.84
2022-09-16T03:43:16.800Z,12.79
2022-09-16T03:44:17.232Z,12.78
2022-09-16T03:45:16.653Z,12.78
2022-09-16T03:46:17.146Z,12.78
2022-09-16T03:47:16.659Z,12.78
2022-09-16T03:48:17.086Z,12.75
2022-09-16T03:49:16.542Z,12.77
2022-09-16T03:50:17.023Z,12.74
2022-09-16T03:51:16.454Z,12.77
2022-09-16T03:52:16.888Z,12.74
2022-09-16T03:53:16.378Z,12.74
2022-09-16T03:54:16.882Z,12.79
2022-09-16T03:55:16.379Z,12.77
2022-09-16T03:56:16.822Z,12.75
2022-09-16T03:57:17.313Z,12.75
2022-09-16T03:58:16.909Z,12.72
2022-09-16T03:59:16.353Z,12.67
2022-09-16T04:00:16.797Z,12.71
2022-09-16T04:01:17.287Z,12.68
2022-09-16T04:02:16.561Z,12.66
2022-09-16T04:03:17.054Z,12.61
2022-09-16T04:04:16.506Z,12.61
2022-09-16T04:05:16.942Z,12.64
2022-09-16T04:06:16.405Z,12.61
2022-09-16T04:07:16.879Z,12.60
2022-09-16T04:08:16.315Z,12.60
2022-09-16T04:09:16.833Z,12.61
2022-09-16T04:10:16.343Z,12.61
2022-09-16T04:11:16.815Z,12.60
2022-09-16T04:12:17.254Z,12.60
2022-09-16T04:13:16.681Z,12.57
2022-09-16T04:14:17.123Z,12.56
2022-09-16T04:15:16.581Z,12.58
2022-09-16T04:16:17.021Z,12.54
2022-09-16T04:17:16.538Z,12.61
2022-09-16T04:18:16.951Z,12.61
2022-09-16T04:19:16.368Z,12.61
2022-09-16T04:20:16.816Z,12.56
2022-09-16T04:21:17.262Z,12.56
2022-09-16T04:22:16.968Z,12.58
2022-09-16T04:23:16.455Z,12.53
2022-09-16T04:24:16.916Z,12.51
2022-09-16T04:25:16.410Z,12.50
2022-09-16T04:26:16.893Z,12.57
2022-09-16T04:27:16.343Z,12.57
2022-09-16T04:28:16.767Z,12.57
2022-09-16T04:29:17.196Z,12.60
2022-09-16T04:30:16.636Z,12.60
2022-09-16T04:31:17.163Z,12.70
2022-09-16T04:32:16.650Z,12.74
2022-09-16T04:33:17.115Z,12.71
2022-09-16T04:34:16.554Z,12.66
2022-09-16T04:35:17.054Z,12.67
2022-09-16T04:36:16.529Z,12.70
2022-09-16T04:37:16.980Z,12.74
2022-09-16T04:38:16.433Z,12.74
2022-09-16T04:39:16.890Z,12.71
2022-09-16T04:40:16.358Z,12.70
2022-09-16T04:41:16.911Z,12.72
2022-09-16T04:42:16.338Z,12.70
2022-09-16T04:43:16.770Z,12.70
2022-09-16T04:44:17.207Z,12.72
2022-09-16T04:45:16.673Z,12.70
2022-09-16T04:46:17.183Z,12.72
2022-09-16T04:47:16.724Z,12.70
2022-09-16T04:48:17.177Z,12.72
2022-09-16T04:49:16.599Z,12.74
2022-09-16T04:50:17.074Z,12.70
2022-09-16T04:51:16.541Z,12.68
2022-09-16T04:52:16.406Z,12.67
2022-09-16T04:53:16.880Z,12.63
2022-09-16T04:54:16.361Z,12.64
2022-09-16T04:55:16.795Z,12.67
2022-09-16T04:56:17.226Z,12.63
2022-09-16T04:57:16.657Z,12.63
2022-09-16T04:58:17.091Z,12.61
2022-09-16T04:59:16.515Z,12.61
2022-09-16T05:00:16.935Z,12.66
2022-09-16T05:01:16.653Z,12.67
2022-09-16T05:02:16.910Z,12.67
2022-09-16T05:03:16.427Z,12.70
2022-09-16T05:04:17.059Z,12.67
2022-09-16T05:05:16.513Z,12.66
2022-09-16T05:06:20.411Z,12.61
2022-09-16T05:07:16.469Z,12.63
2022-09-16T05:08:16.930Z,12.63
2022-09-16T05:09:16.373Z,12.63
2022-09-16T05:10:16.811Z,12.67
2022-09-16T05:11:17.238Z,12.74
2022-09-16T05:12:17.197Z,12.77
2022-09-16T05:13:16.652Z,12.74
2022-09-16T05:14:17.088Z,12.77
2022-09-16T05:15:16.509Z,12.72
2022-09-16T05:16:17.027Z,12.74
2022-09-16T05:17:33.349Z,12.77
2022-09-16T05:18:17.135Z,12.77
2022-09-16T05:19:16.592Z,12.77
2022-09-16T05:20:17.049Z,12.78
2022-09-16T05:21:16.553Z,12.81
2022-09-16T05:22:16.967Z,12.82
2022-09-16T05:23:16.417Z,12.79
2022-09-16T05:24:16.911Z,12.78
2022-09-16T05:25:16.367Z,12.81
2022-09-16T05:26:16.799Z,12.82
2022-09-16T05:27:17.248Z,12.85
2022-09-16T05:28:16.673Z,12.84
2022-09-16T05:29:17.120Z,12.84
2022-09-16T05:30:16.561Z,12.82
2022-09-16T05:31:17.047Z,12.85
2022-09-16T05:32:16.651Z,12.81
2022-09-16T05:33:17.115Z,12.81
2022-09-16T05:34:16.595Z,12.82
2022-09-16T05:35:17.041Z,12.82
2022-09-16T05:36:16.483Z,12.81
2022-09-16T05:37:16.968Z,12.81
2022-09-16T05:38:16.420Z,12.77
2022-09-16T05:39:23.539Z,12.81
2022-09-16T05:40:16.430Z,12.78
2022-09-16T05:41:17.049Z,12.78
2022-09-16T05:42:17.150Z,12.78
2022-09-16T05:43:16.584Z,12.81
2022-09-16T05:44:17.024Z,12.81
2022-09-16T05:45:19.062Z,12.82
2022-09-16T05:46:16.975Z,12.81
2022-09-16T05:47:16.531Z,12.88
2022-09-16T05:48:16.975Z,12.89
2022-09-16T05:49:16.414Z,12.88
2022-09-16T05:50:16.883Z,12.88
2022-09-16T05:51:20.026Z,12.85
2022-09-16T05:52:16.427Z,12.85
2022-09-16T05:53:16.898Z,12.91
2022-09-16T05:54:16.383Z,12.89
2022-09-16T05:55:16.809Z,12.87
2022-09-16T05:56:16.309Z,12.89
2022-09-16T05:57:16.727Z,12.91
2022-09-16T05:58:17.170Z,12.94
2022-09-16T05:59:16.609Z,12.95
2022-09-16T06:00:17.063Z,12.94
2022-09-16T06:01:16.552Z,12.96
2022-09-16T06:02:17.167Z,12.96
2022-09-16T06:03:16.708Z,12.99
2022-09-16T06:04:17.175Z,12.96
2022-09-16T06:05:16.657Z,12.95
2022-09-16T06:06:17.151Z,12.96
2022-09-16T06:07:16.603Z,13.01
2022-09-16T06:08:17.036Z,12.96
2022-09-16T06:09:16.461Z,12.98
2022-09-16T06:10:16.897Z,12.99
2022-09-16T06:11:16.310Z,12.98
2022-09-16T06:12:16.358Z,13.04
2022-09-16T06:13:16.783Z,13.01
2022-09-16T06:14:17.200Z,12.99
2022-09-16T06:15:16.661Z,13.05
2022-09-16T06:16:17.203Z,12.99
2022-09-16T06:17:16.694Z,13.04
2022-09-16T06:18:17.163Z,13.08
2022-09-16T06:19:16.636Z,13.06
2022-09-16T06:20:17.087Z,13.06
2022-09-16T06:21:17.116Z,13.09
2022-09-16T06:22:17.187Z,13.06
2022-09-16T06:23:16.628Z,13.08
2022-09-16T06:24:17.066Z,13.08
2022-09-16T06:25:16.512Z,13.05
2022-09-16T06:26:16.957Z,13.05
2022-09-16T06:27:16.391Z,13.06
2022-09-16T06:28:16.840Z,13.11
2022-09-16T06:29:17.283Z,13.02
2022-09-16T06:30:16.755Z,13.01
2022-09-16T06:31:17.258Z,12.96
2022-09-16T06:32:16.831Z,12.98
2022-09-16T06:33:16.283Z,12.95
2022-09-16T06:34:16.777Z,12.98
2022-09-16T06:35:17.255Z,12.96
2022-09-16T06:36:16.747Z,13.02
2022-09-16T06:37:17.168Z,12.99
2022-09-16T06:38:16.620Z,12.96
2022-09-16T06:39:17.062Z,13.04
2022-09-16T06:40:16.540Z,13.06
2022-09-16T06:41:17.060Z,13.08
2022-09-16T06:42:16.569Z,12.99
2022-09-16T06:43:16.997Z,12.99
2022-09-16T06:44:16.459Z,13.04
2022-09-16T06:45:16.911Z,13.04
2022-09-16T06:46:16.444Z,13.04
2022-09-16T06:47:17.124Z,13.04
2022-09-16T06:48:16.575Z,13.05
2022-09-16T06:49:17.058Z,13.11
2022-09-16T06:50:16.538Z,13.12
2022-09-16T06:51:16.982Z,13.14
2022-09-16T06:52:16.403Z,13.14
2022-09-16T06:53:16.876Z,13.09
2022-09-16T06:54:16.313Z,13.08
2022-09-16T06:55:16.730Z,13.08
2022-09-16T06:56:17.164Z,13.11
2022-09-16T06:57:16.599Z,13.09
2022-09-16T06:58:17.051Z,13.12
2022-09-16T06:59:16.511Z,13.12
2022-09-16T07:00:16.991Z,13.09
2022-09-16T07:01:16.559Z,13.09
2022-09-16T07:02:17.005Z,13.15
2022-09-16T07:03:16.587Z,13.12
2022-09-16T07:04:17.044Z,13.12
2022-09-16T07:05:16.504Z,13.12
2022-09-16T07:06:16.961Z,13.22
2022-09-16T07:07:16.379Z,13.21
2022-09-16T07:08:16.823Z,13.26
2022-09-16T07:09:17.296Z,13.30
2022-09-16T07:10:16.758Z,13.26
2022-09-16T07:11:17.200Z,13.11
2022-09-16T07:12:19.598Z,13.15
2022-09-16T07:13:17.277Z,13.14
2022-09-16T07:14:16.754Z,13.23
2022-09-16T07:15:17.227Z,13.26
2022-09-16T07:16:16.683Z,13.29
2022-09-16T07:17:17.162Z,13.27
2022-09-16T07:18:16.673Z,13.30
2022-09-16T07:19:17.177Z,13.23
2022-09-16T07:20:16.609Z,13.25
2022-09-16T07:21:17.020Z,13.33
2022-09-16T07:22:16.616Z,13.33
2022-09-16T07:23:17.043Z,13.32
2022-09-16T07:24:16.463Z,13.34
2022-09-16T07:25:16.888Z,13.26
2022-09-16T07:26:16.340Z,13.22
2022-09-16T07:27:16.798Z,13.30
2022-09-16T07:28:17.247Z,13.33
2022-09-16T07:29:16.700Z,13.29
2022-09-16T07:30:17.202Z,13.29
2022-09-16T07:31:16.785Z,13.29
2022-09-16T07:32:16.367Z,13.36
2022-09-16T07:33:16.822Z,13.30
2022-09-16T07:34:17.257Z,13.37
2022-09-16T07:35:16.688Z,13.42
2022-09-16T07:36:17.109Z,13.42
2022-09-16T07:37:16.532Z,13.49
2022-09-16T07:38:16.972Z,13.37
2022-09-16T07:39:16.409Z,13.49
2022-09-16T07:40:16.930Z,13.55
2022-09-16T07:41:16.450Z,13.64
2022-09-16T07:42:17.052Z,13.61
2022-09-16T07:43:16.512Z,13.63
2022-09-16T07:44:16.995Z,13.46
2022-09-16T07:45:16.473Z,13.36
2022-09-16T07:46:16.989Z,13.40
2022-09-16T07:47:20.127Z,13.50
2022-09-16T07:48:16.802Z,13.51
2022-09-16T07:49:17.270Z,13.51
2022-09-16T07:50:16.691Z,13.65
2022-09-16T07:51:17.118Z,13.60
2022-09-16T07:52:16.918Z,13.65
2022-09-16T07:53:16.348Z,13.80
2022-09-16T07:54:16.783Z,13.57
2022-09-16T07:55:17.283Z,13.63
2022-09-16T07:56:16.740Z,13.73
2022-09-16T07:57:17.224Z,13.77
2022-09-16T07:58:16.692Z,13.67
2022-09-16T07:59:18.628Z,13.50
2022-09-16T08:00:16.788Z,13.58
2022-09-16T08:01:17.333Z,13.49
2022-09-16T08:02:16.898Z,13.49
2022-09-16T08:03:16.673Z,13.63
2022-09-16T08:04:17.105Z,13.65
2022-09-16T08:05:16.558Z,13.61
2022-09-16T08:06:17.011Z,13.53
2022-09-16T08:07:16.449Z,13.46
2022-09-16T08:08:16.882Z,13.55
2022-09-16T08:09:37.609Z,13.55
2022-09-16T08:10:16.992Z,13.49
2022-09-16T08:11:16.453Z,13.58
2022-09-16T08:12:16.478Z,13.63
2022-09-16T08:13:16.932Z,13.58
2022-09-16T08:14:16.388Z,13.63
2022-09-16T08:15:16.849Z,13.54
2022-09-16T08:16:16.431Z,13.64
2022-09-16T08:17:16.982Z,13.61
2022-09-16T08:18:16.428Z,13.63
2022-09-16T08:19:16.915Z,13.67
2022-09-16T08:20:16.332Z,13.65
2022-09-16T08:21:16.782Z,13.51
2022-09-16T08:22:17.097Z,13.68
2022-09-16T08:23:16.508Z,13.73
2022-09-16T08:24:16.934Z,13.80
2022-09-16T08:25:16.355Z,13.85
2022-09-16T08:26:16.816Z,13.91
2022-09-16T08:27:17.307Z,13.81
2022-09-16T08:28:16.799Z,13.77
2022-09-16T08:29:17.541Z,13.78
2022-09-16T08:30:16.917Z,13.65
2022-09-16T08:31:16.385Z,13.71
2022-09-16T08:32:17.151Z,13.73
2022-09-16T08:33:16.591Z,13.82
2022-09-16T08:34:17.035Z,13.85
2022-09-16T08:35:16.479Z,13.84
2022-09-16T08:36:16.907Z,13.85
2022-09-16T08:37:16.348Z,13.91
2022-09-16T08:38:16.841Z,13.90
2022-09-16T08:39:17.280Z,13.76
2022-09-16T08:40:16.803Z,13.88
2022-09-16T08:41:16.448Z,13.92
2022-09-16T08:42:16.555Z,13.94
2022-09-16T08:43:16.998Z,13.95
2022-09-16T08:44:16.476Z,13.92
2022-09-16T08:45:16.921Z,13.95
2022-09-16T08:46:16.476Z,13.85
2022-09-16T08:47:17.037Z,13.87
2022-09-16T08:48:16.473Z,13.87
2022-09-16T08:49:16.906Z,13.87
2022-09-16T08:50:16.387Z,13.81
2022-09-16T08:51:16.832Z,13.92
2022-09-16T08:52:16.434Z,13.91
2022-09-16T08:53:16.865Z,13.74
2022-09-16T08:54:16.337Z,13.80
2022-09-16T08:55:16.792Z,13.92
2022-09-16T08:56:17.272Z,13.90
2022-09-16T08:57:16.720Z,13.92
2022-09-16T08:58:17.216Z,13.98
2022-09-16T08:59:16.685Z,13.94
2022-09-16T09:00:17.156Z,14.15
2022-09-16T09:01:16.767Z,14.05
2022-09-16T09:02:16.955Z,13.98
2022-09-16T09:03:17.173Z,14.07
2022-09-16T09:04:16.608Z,13.97
2022-09-16T09:05:17.034Z,13.97
2022-09-16T09:06:16.462Z,14.08
2022-09-16T09:07:16.882Z,14.13
2022-09-16T09:08:16.338Z,14.29
2022-09-16T09:09:16.777Z,14.39
2022-09-16T09:10:17.507Z,14.25
2022-09-16T09:11:16.976Z,14.33
2022-09-16T09:12:17.914Z,14.46
2022-09-16T09:13:17.676Z,14.39
2022-09-16T09:14:16.492Z,14.29
2022-09-16T09:15:16.952Z,14.25
2022-09-16T09:16:16.445Z,14.28
2022-09-16T09:17:16.996Z,14.37
2022-09-16T09:18:16.420Z,14.13
2022-09-16T09:19:16.834Z,14.15
2022-09-16T09:20:16.299Z,14.28
2022-09-16T09:21:16.713Z,14.29
2022-09-16T09:22:16.580Z,14.37
2022-09-16T09:23:17.040Z,14.23
2022-09-16T09:24:16.497Z,14.18
2022-09-16T09:25:16.999Z,14.22
2022-09-16T09:26:16.500Z,14.36
2022-09-16T09:27:16.974Z,14.29
2022-09-16T09:28:16.426Z,14.33
2022-09-16T09:29:16.923Z,14.53
2022-09-16T09:30:16.399Z,14.49
2022-09-16T09:31:16.900Z,14.49
2022-09-16T09:32:16.447Z,14.44
2022-09-16T09:33:34.500Z,14.39
2022-09-16T09:34:16.286Z,14.40
2022-09-16T09:35:16.759Z,14.22
2022-09-16T09:36:17.206Z,14.30
2022-09-16T09:37:16.665Z,14.36
2022-09-16T09:38:17.100Z,14.43
2022-09-16T09:39:16.575Z,14.41
2022-09-16T09:40:17.145Z,14.47
2022-09-16T09:41:16.729Z,14.55
2022-09-16T09:42:16.759Z,14.50
2022-09-16T09:43:17.239Z,14.57
2022-09-16T09:44:16.694Z,14.57
2022-09-16T09:45:17.195Z,14.64
2022-09-16T09:46:16.774Z,14.66
2022-09-16T09:47:16.308Z,14.60
2022-09-16T09:48:16.768Z,14.49
2022-09-16T09:49:17.207Z,14.62
2022-09-16T09:50:16.664Z,14.64
2022-09-16T09:51:17.102Z,14.77
2022-09-16T09:52:16.813Z,14.77
2022-09-16T09:53:17.242Z,14.81
2022-09-16T09:54:16.703Z,14.73
2022-09-16T09:55:17.226Z,14.71
2022-09-16T09:56:16.700Z,14.87
2022-09-16T09:57:17.178Z,14.78
2022-09-16T09:58:16.653Z,14.81
2022-09-16T09:59:17.106Z,14.81
2022-09-16T10:00:16.562Z,15.01
2022-09-16T10:01:17.078Z,14.83
2022-09-16T10:02:16.791Z,15.08
2022-09-16T10:03:16.374Z,15.06
2022-09-16T10:04:16.818Z,15.05
2022-09-16T10:05:17.273Z,15.12
2022-09-16T10:06:16.686Z,14.76
2022-09-16T10:07:17.122Z,14.76
2022-09-16T10:08:16.770Z,14.76
2022-09-16T10:09:16.471Z,14.73
2022-09-16T10:10:17.003Z,14.71
2022-09-16T10:11:16.549Z,14.70
2022-09-16T10:12:16.835Z,14.66
2022-09-16T10:13:16.299Z,14.57
2022-09-16T10:14:16.759Z,14.64
2022-09-16T10:15:17.368Z,14.71
2022-09-16T10:16:16.805Z,14.83
2022-09-16T10:17:16.289Z,14.78
2022-09-16T10:18:16.712Z,14.85
2022-09-16T10:19:17.179Z,14.73
2022-09-16T10:20:16.618Z,14.77
2022-09-16T10:21:17.100Z,14.53
2022-09-16T10:22:16.712Z,14.66
2022-09-16T10:23:17.180Z,14.98
2022-09-16T10:24:16.678Z,15.09
2022-09-16T10:25:17.608Z,14.99
2022-09-16T10:26:17.062Z,15.02
2022-09-16T10:27:16.532Z,14.90
2022-09-16T10:28:16.997Z,14.97
2022-09-16T10:29:16.466Z,15.14
2022-09-16T10:30:17.141Z,15.14
2022-09-16T10:31:17.002Z,15.31
2022-09-16T10:32:17.074Z,15.06
2022-09-16T10:33:16.497Z,15.02
2022-09-16T10:34:16.914Z,15.04
2022-09-16T10:35:16.359Z,15.19
2022-09-16T10:36:16.812Z,15.19
2022-09-16T10:37:17.244Z,15.12
2022-09-16T10:38:16.710Z,15.12
2022-09-16T10:39:17.197Z,15.04
2022-09-16T10:40:16.823Z,15.12
2022-09-16T10:41:16.710Z,15.14
2022-09-16T10:42:16.644Z,15.15
2022-09-16T10:43:17.125Z,15.19
2022-09-16T10:44:17.577Z,15.08
2022-09-16T10:45:17.231Z,15.15
2022-09-16T10:46:16.684Z,15.06
2022-09-16T10:47:17.264Z,15.09
2022-09-16T10:48:16.685Z,14.95
2022-09-16T10:49:17.101Z,15.05
2022-09-16T10:50:16.543Z,15.09
2022-09-16T10:51:16.981Z,15.05
2022-09-16T10:52:16.628Z,15.06
2022-09-16T10:53:17.103Z,15.09
2022-09-16T10:54:16.615Z,15.09
2022-09-16T10:55:17.061Z,15.02
2022-09-16T10:56:16.516Z,15.02
2022-09-16T10:57:16.987Z,14.98
2022-09-16T10:58:16.472Z,15.16
2022-09-16T10:59:16.938Z,14.98
2022-09-16T11:00:16.407Z,15.02
2022-09-16T11:01:17.691Z,15.09
2022-09-16T11:02:16.954Z,15.05
2022-09-16T11:03:17.057Z,15.23
2022-09-16T11:04:16.495Z,15.29
2022-09-16T11:05:16.937Z,15.26
2022-09-16T11:06:16.388Z,15.18
2022-09-16T11:07:16.913Z,15.22
2022-09-16T11:08:16.377Z,15.23
2022-09-16T11:09:16.852Z,14.97
2022-09-16T11:10:16.299Z,14.95
2022-09-16T11:11:16.749Z,14.92
2022-09-16T11:12:16.425Z,14.90
2022-09-16T11:13:16.886Z,14.88
2022-09-16T11:14:16.316Z,14.85
2022-09-16T11:15:16.751Z,14.74
2022-09-16T11:16:17.219Z,14.73
2022-09-16T11:17:16.784Z,14.70
2022-09-16T11:18:17.211Z,14.67
2022-09-16T11:19:16.671Z,14.52
2022-09-16T11:20:17.104Z,14.49
2022-09-16T11:21:16.540Z,14.47
2022-09-16T11:22:16.475Z,14.39
2022-09-16T11:23:16.921Z,14.44
2022-09-16T11:24:16.373Z,14.40
2022-09-16T11:25:16.833Z,14.36
2022-09-16T11:26:16.293Z,14.36
2022-09-16T11:27:16.773Z,14.36
2022-09-16T11:28:17.209Z,14.37
2022-09-16T11:29:16.640Z,14.32
2022-09-16T11:30:17.070Z,14.32
2022-09-16T11:31:16.581Z,14.39
2022-09-16T11:32:17.270Z,14.39
2022-09-16T11:33:16.981Z,14.32
2022-09-16T11:34:16.829Z,14.32
2022-09-16T11:35:17.276Z,14.30
2022-09-16T11:36:16.723Z,14.32
2022-09-16T11:37:17.215Z,14.37
2022-09-16T11:38:16.693Z,14.33
2022-09-16T11:39:17.174Z,14.32
2022-09-16T11:40:16.720Z,14.28
2022-09-16T11:41:16.309Z,14.19
2022-09-16T11:42:16.671Z,14.11
2022-09-16T11:43:17.098Z,14.15
2022-09-16T11:44:16.558Z,14.18
2022-09-16T11:45:16.981Z,14.22
2022-09-16T11:46:16.466Z,14.20
2022-09-16T11:47:16.972Z,14.22
2022-09-16T11:48:16.421Z,14.23
2022-09-16T11:49:16.928Z,14.32
2022-09-16T11:50:16.404Z,14.26
2022-09-16T11:51:16.857Z,14.29
2022-09-16T11:52:16.464Z,14.33
2022-09-16T11:53:17.932Z,14.26
2022-09-16T11:54:16.515Z,14.30
2022-09-16T11:55:17.065Z,14.39
2022-09-16T11:56:16.518Z,14.32
2022-09-16T11:57:16.968Z,14.30
2022-09-16T11:58:16.391Z,14.40
2022-09-16T11:59:16.854Z,14.40
2022-09-16T12:00:17.297Z,14.26
2022-09-16T12:02:17.068Z,14.40
2022-09-16T12:03:16.772Z,14.33
2022-09-16T12:04:16.513Z,14.39
2022-09-16T12:05:16.965Z,14.40
2022-09-16T12:06:16.443Z,14.41
2022-09-16T12:07:16.929Z,14.50
2022-09-16T12:08:16.496Z,14.50
2022-09-16T12:09:16.970Z,14.59
2022-09-16T12:10:16.425Z,14.60
2022-09-16T12:11:16.904Z,14.74
2022-09-16T12:12:16.575Z,14.64
2022-09-16T12:13:17.009Z,14.64
2022-09-16T12:14:16.455Z,14.74
2022-09-16T12:15:16.886Z,14.68
2022-09-16T12:16:16.318Z,14.68
2022-09-16T12:17:16.757Z,14.57
2022-09-16T12:18:17.187Z,14.55
2022-09-16T12:19:16.620Z,14.64
2022-09-16T12:20:17.097Z,14.66
2022-09-16T12:21:16.564Z,14.71
2022-09-16T12:22:16.360Z,14.68
2022-09-16T12:23:16.856Z,14.46
2022-09-16T12:24:16.302Z,14.49
2022-09-16T12:25:16.785Z,14.53
2022-09-16T12:26:17.265Z,14.52
2022-09-16T12:27:16.721Z,14.49
2022-09-16T12:28:17.189Z,14.40
2022-09-16T12:29:16.609Z,14.39
2022-09-16T12:30:17.030Z,14.33
2022-09-16T12:31:17.967Z,14.35
2022-09-16T12:32:17.152Z,14.25
2022-09-16T12:33:16.592Z,14.33
2022-09-16T12:34:17.046Z,14.28
2022-09-16T12:35:16.485Z,14.29
2022-09-16T12:36:18.039Z,14.20
2022-09-16T12:37:17.158Z,14.22
2022-09-16T12:38:16.633Z,14.28
2022-09-16T12:39:17.117Z,14.32
2022-09-16T12:40:16.644Z,14.35
2022-09-16T12:41:16.295Z,14.30
2022-09-16T12:42:17.151Z,14.32
2022-09-16T12:43:16.580Z,14.39
2022-09-16T12:44:30.864Z,14.40
2022-09-16T12:45:16.932Z,14.49
2022-09-16T12:46:16.390Z,14.62
2022-09-16T12:47:16.932Z,14.67
2022-09-16T12:48:16.378Z,14.73
2022-09-16T12:49:16.845Z,14.81
2022-09-16T12:50:16.308Z,14.85
2022-09-16T12:51:16.769Z,14.57
2022-09-16T12:52:17.212Z,14.60
2022-09-16T12:53:16.678Z,14.64